Time;durP1;ratioP1;P1;durP2;ratioP2;P2;SDS_P1;SDS_P2;PMS_P1;PMS_P2;Temp;Humidity;BMP_temperature;BMP_pressure;BME280_temperature;BME280_humidity;BME280_pressure;Samples;Min_cycle;Max_cycle;Signal;HPM_P1;HPM_P2
2021/06/19 00:00:30;;;;;;;26.38;13.57;;;21.20;99.90;;;;;;6227447;28;20069;-80
2021/06/19 00:03:32;;;;;;;19.67;13.60;;;21.30;99.90;;;;;;6226979;28;20069;-80
2021/06/19 00:06:34;;;;;;;14.75;11.00;;;21.20;99.90;;;;;;6227193;28;20051;-80
2021/06/19 00:09:37;;;;;;;14.75;9.85;;;21.20;99.90;;;;;;6227481;28;20089;-80
2021/06/19 00:12:39;;;;;;;14.05;10.23;;;21.20;99.90;;;;;;6226917;28;20086;-80
2021/06/19 00:15:41;;;;;;;14.43;10.38;;;21.20;99.90;;;;;;6226089;28;20073;-80
2021/06/19 00:18:43;;;;;;;11.45;9.85;;;21.30;99.90;;;;;;6226314;28;20479;-80
2021/06/19 00:21:45;;;;;;;15.52;11.38;;;21.40;99.90;;;;;;6227185;28;20054;-80
2021/06/19 00:24:48;;;;;;;20.98;11.80;;;21.50;99.90;;;;;;6227080;28;20045;-80
2021/06/19 00:27:51;;;;;;;10.55;9.43;;;21.50;99.90;;;;;;6226589;28;20574;-80
2021/06/19 00:30:52;;;;;;;14.13;9.80;;;21.60;99.90;;;;;;6226262;28;20108;-81
2021/06/19 00:37:51;;;;;;;23.42;10.73;;;21.60;99.90;;;;;;6248898;28;20038;-80
2021/06/19 00:40:54;;;;;;;14.25;9.27;;;21.50;99.90;;;;;;6250310;28;20565;-80
2021/06/19 00:43:56;;;;;;;16.58;9.20;;;21.40;99.90;;;;;;6250245;28;20073;-82
2021/06/19 00:47:00;;;;;;;13.40;9.60;;;21.40;99.90;;;;;;6250670;28;20092;-79
2021/06/19 00:50:01;;;;;;;25.85;10.63;;;21.40;99.90;;;;;;6249526;28;20128;-80
2021/06/19 00:53:03;;;;;;;16.13;10.10;;;21.30;99.90;;;;;;6251330;28;20053;-79
2021/06/19 00:56:07;;;;;;;18.48;9.10;;;21.30;99.90;;;;;;6250219;28;20130;-80
2021/06/19 00:59:10;;;;;;;14.00;8.55;;;21.30;99.90;;;;;;6249982;28;20515;-80
2021/06/19 01:02:11;;;;;;;15.65;10.68;;;21.30;99.90;;;;;;6249877;28;20125;-79
2021/06/19 01:05:14;;;;;;;15.95;10.40;;;21.20;99.90;;;;;;6250740;28;20108;-80
2021/06/19 01:08:16;;;;;;;13.13;9.88;;;21.20;99.90;;;;;;6249781;28;20053;-80
2021/06/19 01:11:21;;;;;;;16.25;8.90;;;21.10;99.90;;;;;;6250499;28;20049;-80
2021/06/19 01:14:23;;;;;;;19.58;11.20;;;21.10;99.90;;;;;;6249742;28;20041;-80
2021/06/19 01:17:25;;;;;;;12.02;9.52;;;21.10;99.90;;;;;;6251544;28;20053;-80
2021/06/19 01:20:27;;;;;;;14.55;9.52;;;21.10;99.90;;;;;;6250237;28;20128;-80
2021/06/19 01:23:29;;;;;;;14.07;8.23;;;21.20;99.90;;;;;;6286230;23;20042;-76
2021/06/19 01:26:35;;;;;;;14.02;9.63;;;21.20;99.90;;;;;;6246179;28;20104;-76
2021/06/19 01:29:37;;;;;;;16.00;9.65;;;21.10;99.90;;;;;;6246397;28;20140;-77
2021/06/19 01:32:40;;;;;;;17.48;9.70;;;21.00;99.90;;;;;;6247183;28;20128;-76
2021/06/19 01:35:42;;;;;;;17.95;10.88;;;21.00;99.90;;;;;;6245974;28;20179;-77
2021/06/19 01:38:46;;;;;;;20.85;9.77;;;21.10;99.90;;;;;;6245760;28;20521;-77
2021/06/19 01:41:50;;;;;;;16.70;9.70;;;21.20;99.90;;;;;;6246301;28;20063;-76
2021/06/19 01:44:51;;;;;;;14.65;8.50;;;21.20;99.90;;;;;;6247626;28;20045;-77
2021/06/19 01:47:54;;;;;;;20.88;11.35;;;21.20;99.90;;;;;;6247826;28;20510;-77
2021/06/19 01:50:56;;;;;;;15.05;10.00;;;21.20;99.90;;;;;;6246074;28;20075;-79
2021/06/19 01:53:58;;;;;;;11.88;8.68;;;21.10;99.90;;;;;;6246489;28;20050;-79
2021/06/19 01:57:01;;;;;;;15.07;9.27;;;21.10;99.90;;;;;;6247490;28;20056;-79
2021/06/19 02:00:06;;;;;;;14.20;9.80;;;21.10;99.90;;;;;;6246551;28;20136;-79
2021/06/19 02:03:09;;;;;;;13.02;9.73;;;21.00;99.90;;;;;;6251441;28;20447;-79
2021/06/19 02:06:11;;;;;;;15.68;9.73;;;21.00;99.90;;;;;;6253032;28;20049;-79
2021/06/19 02:09:13;;;;;;;13.55;11.38;;;21.00;99.90;;;;;;6254201;28;20081;-78
2021/06/19 02:12:17;;;;;;;14.05;9.05;;;21.10;99.90;;;;;;6254589;28;20107;-79
2021/06/19 02:15:20;;;;;;;14.68;9.93;;;21.10;99.90;;;;;;6254595;28;20049;-79
2021/06/19 02:18:22;;;;;;;17.17;10.20;;;21.00;99.90;;;;;;6254502;28;20127;-79
2021/06/19 02:21:24;;;;;;;17.33;9.68;;;21.10;99.90;;;;;;6254383;28;20203;-79
2021/06/19 02:24:25;;;;;;;11.90;9.68;;;21.00;99.90;;;;;;6254018;28;20119;-78
2021/06/19 02:27:28;;;;;;;17.45;11.73;;;21.00;99.90;;;;;;6253573;28;20041;-79
2021/06/19 02:30:33;;;;;;;12.55;10.35;;;21.00;99.90;;;;;;6254181;28;20045;-78
2021/06/19 02:33:35;;;;;;;13.18;9.77;;;21.00;99.90;;;;;;6254546;28;20081;-79
2021/06/19 02:36:36;;;;;;;16.17;10.93;;;21.10;99.90;;;;;;6253822;28;20044;-79
2021/06/19 02:39:38;;;;;;;21.02;10.27;;;21.10;99.90;;;;;;6253297;28;20534;-79
2021/06/19 02:42:42;;;;;;;16.88;10.90;;;21.00;99.90;;;;;;6254972;28;20048;-78
2021/06/19 02:45:44;;;;;;;18.05;11.93;;;21.00;99.90;;;;;;6254286;28;20093;-78
2021/06/19 02:48:45;;;;;;;18.23;11.25;;;21.00;99.90;;;;;;6254302;28;20131;-79
2021/06/19 02:51:47;;;;;;;15.02;11.15;;;20.90;99.90;;;;;;6254081;28;20080;-78
2021/06/19 02:54:49;;;;;;;14.77;10.75;;;20.90;99.90;;;;;;6253380;28;20095;-79
2021/06/19 02:57:52;;;;;;;18.50;11.30;;;20.90;99.90;;;;;;6252766;28;20517;-79
2021/06/19 03:00:54;;;;;;;15.32;11.32;;;20.80;99.90;;;;;;6254294;28;20140;-78
2021/06/19 03:03:56;;;;;;;12.35;10.82;;;20.80;99.90;;;;;;6253549;28;20511;-78
2021/06/19 03:06:58;;;;;;;20.02;13.70;;;20.70;99.90;;;;;;6252670;28;20042;-79
2021/06/19 03:10:00;;;;;;;13.00;11.55;;;20.60;99.90;;;;;;6253061;28;20507;-78
2021/06/19 03:13:03;;;;;;;14.90;10.80;;;20.50;99.90;;;;;;6253863;28;20081;-78
2021/06/19 03:16:06;;;;;;;15.57;11.35;;;20.50;99.90;;;;;;6252591;28;20196;-79
2021/06/19 03:19:09;;;;;;;21.48;11.77;;;20.40;99.90;;;;;;6252900;28;20084;-78
2021/06/19 03:22:11;;;;;;;20.15;12.30;;;20.40;99.90;;;;;;6253578;28;20045;-79
2021/06/19 03:25:17;;;;;;;17.15;12.68;;;20.40;99.90;;;;;;6253740;28;20135;-79
2021/06/19 03:28:20;;;;;;;14.35;12.20;;;20.40;99.90;;;;;;6253021;28;20068;-78
2021/06/19 03:31:22;;;;;;;13.20;11.25;;;20.40;99.90;;;;;;6253508;28;20502;-78
2021/06/19 03:34:24;;;;;;;15.00;10.75;;;20.30;99.90;;;;;;6254988;28;20129;-78
2021/06/19 03:37:25;;;;;;;15.02;12.35;;;20.30;99.90;;;;;;6256237;28;20073;-78
2021/06/19 03:40:29;;;;;;;19.08;12.18;;;20.40;99.90;;;;;;6254257;28;20538;-78
2021/06/19 03:43:32;;;;;;;15.75;11.13;;;20.40;99.90;;;;;;6255412;28;20045;-78
2021/06/19 03:46:34;;;;;;;13.80;12.40;;;20.40;99.90;;;;;;6254458;28;20087;-78
2021/06/19 03:49:35;;;;;;;16.95;11.05;;;20.40;99.90;;;;;;6254912;28;20136;-78
2021/06/19 03:52:37;;;;;;;16.15;11.95;;;20.50;99.90;;;;;;6254992;28;20081;-78
2021/06/19 03:55:39;;;;;;;15.38;11.45;;;20.50;99.90;;;;;;6253935;28;20042;-78
2021/06/19 03:58:42;;;;;;;18.33;11.77;;;20.60;99.90;;;;;;6254958;28;20091;-78
2021/06/19 04:01:44;;;;;;;17.13;11.60;;;20.60;99.90;;;;;;6255414;28;20049;-78
2021/06/19 04:04:46;;;;;;;14.40;10.95;;;20.70;99.90;;;;;;6256198;28;20128;-78
2021/06/19 04:07:48;;;;;;;12.07;10.93;;;20.80;99.90;;;;;;6255438;28;20109;-78
2021/06/19 04:10:50;;;;;;;12.32;11.05;;;20.80;99.90;;;;;;6256024;28;20120;-79
2021/06/19 04:13:53;;;;;;;13.57;9.48;;;20.90;99.90;;;;;;6255369;28;20130;-78
2021/06/19 04:16:55;;;;;;;12.15;10.38;;;21.00;99.90;;;;;;6255995;28;20054;-78
2021/06/19 04:19:57;;;;;;;17.20;11.18;;;21.20;99.90;;;;;;6255035;28;20058;-78
2021/06/19 04:22:59;;;;;;;17.00;10.20;;;21.20;99.90;;;;;;6253976;28;20060;-78
2021/06/19 04:26:01;;;;;;;13.50;9.85;;;21.30;99.90;;;;;;6254777;28;20124;-77
2021/06/19 04:29:04;;;;;;;11.45;9.27;;;21.40;99.90;;;;;;6255372;28;20124;-78
2021/06/19 04:32:07;;;;;;;12.40;10.57;;;21.40;99.90;;;;;;6253901;28;20072;-79
2021/06/19 04:35:10;;;;;;;14.25;9.27;;;21.50;99.90;;;;;;6254190;28;20052;-78
2021/06/19 04:38:11;;;;;;;17.38;9.82;;;21.70;99.90;;;;;;6269627;28;20071;-78
2021/06/19 04:41:23;;;;;;;11.32;9.40;;;21.70;99.90;;;;;;6273628;28;20049;-79
2021/06/19 04:44:41;;;;;;;13.88;9.70;;;21.90;99.90;;;;;;6252655;28;20060;-78
2021/06/19 04:47:43;;;;;;;13.27;9.25;;;22.10;99.90;;;;;;6252910;28;20049;-79
2021/06/19 04:50:45;;;;;;;11.90;9.57;;;22.30;99.90;;;;;;6252144;28;20038;-78
2021/06/19 04:53:47;;;;;;;11.40;8.93;;;22.50;99.90;;;;;;6253126;28;20100;-78
2021/06/19 04:56:48;;;;;;;11.98;8.85;;;22.70;99.90;;;;;;6254022;28;20049;-78
2021/06/19 04:59:52;;;;;;;17.20;7.90;;;23.00;99.90;;;;;;6253497;28;20100;-79
2021/06/19 05:02:54;;;;;;;10.70;9.57;;;23.20;99.90;;;;;;6254116;28;20065;-79
2021/06/19 05:05:58;;;;;;;9.40;8.45;;;23.40;99.90;;;;;;6254016;28;20140;-79
2021/06/19 05:09:00;;;;;;;19.38;8.23;;;23.70;99.90;;;;;;6253682;28;20207;-79
2021/06/19 05:12:02;;;;;;;12.70;8.57;;;23.80;99.90;;;;;;6253684;28;20072;-79
2021/06/19 05:15:06;;;;;;;17.95;7.95;;;24.00;99.90;;;;;;6253710;28;20099;-79
2021/06/19 05:18:08;;;;;;;10.70;7.03;;;24.20;99.90;;;;;;6253448;28;20513;-79
2021/06/19 05:21:10;;;;;;;8.13;7.20;;;24.40;99.90;;;;;;6253031;28;20550;-78
2021/06/19 05:24:12;;;;;;;10.02;8.05;;;24.50;99.90;;;;;;6252093;28;20073;-78
2021/06/19 05:27:14;;;;;;;12.48;7.28;;;24.60;99.90;;;;;;6253851;28;20052;-78
2021/06/19 05:30:18;;;;;;;15.23;7.82;;;24.70;99.90;;;;;;6253225;28;20049;-79
2021/06/19 05:33:20;;;;;;;14.38;8.10;;;24.70;99.90;;;;;;6252810;28;20502;-78
2021/06/19 05:36:22;;;;;;;9.60;6.88;;;24.80;99.90;;;;;;6256366;28;20117;-79
2021/06/19 05:39:24;;;;;;;17.35;8.02;;;25.10;99.90;;;;;;6258917;28;20530;-79
2021/06/19 05:42:25;;;;;;;14.20;6.72;;;25.30;99.90;;;;;;6258488;28;20045;-79
2021/06/19 05:45:29;;;;;;;9.82;7.55;;;25.50;99.90;;;;;;6259240;28;20081;-79
2021/06/19 05:48:30;;;;;;;15.57;7.03;;;25.70;99.90;;;;;;6257157;28;20061;-78
2021/06/19 05:51:33;;;;;;;9.02;6.18;;;25.90;99.90;;;;;;6258192;28;20103;-79
2021/06/19 05:54:36;;;;;;;12.10;6.97;;;26.00;99.90;;;;;;6257414;28;20046;-79
2021/06/19 05:57:38;;;;;;;7.53;6.43;;;26.20;99.50;;;;;;6258165;28;20483;-79
2021/06/19 06:00:41;;;;;;;10.13;6.15;;;26.30;97.70;;;;;;6257883;28;20080;-79
2021/06/19 06:03:44;;;;;;;9.63;7.03;;;26.40;96.20;;;;;;6252633;28;20128;-79
2021/06/19 06:06:45;;;;;;;20.15;7.15;;;26.60;97.00;;;;;;6240247;28;20126;-78
2021/06/19 06:09:47;;;;;;;10.45;5.85;;;27.20;96.50;;;;;;6257168;28;20049;-78
2021/06/19 06:12:49;;;;;;;8.77;6.75;;;28.10;93.30;;;;;;6255657;28;20131;-79
2021/06/19 06:15:52;;;;;;;8.88;5.82;;;28.70;91.30;;;;;;6232320;28;20129;-79
2021/06/19 06:18:54;;;;;;;12.23;6.70;;;29.00;87.60;;;;;;6232938;28;20046;-78
2021/06/19 06:21:56;;;;;;;8.95;5.05;;;29.30;87.40;;;;;;6239869;28;20077;-79
2021/06/19 06:24:58;;;;;;;12.23;6.15;;;29.70;86.70;;;;;;6250612;28;20143;-79
2021/06/19 06:28:00;;;;;;;14.25;6.07;;;30.10;83.50;;;;;;6257904;28;20152;-79
2021/06/19 06:31:03;;;;;;;6.82;5.93;;;30.40;78.90;;;;;;6257070;28;20045;-79
2021/06/19 06:34:05;;;;;;;8.45;5.22;;;30.50;78.20;;;;;;6258358;28;20057;-79
2021/06/19 06:37:07;;;;;;;12.90;5.63;;;30.60;76.20;;;;;;6259205;28;20065;-79
2021/06/19 06:40:11;;;;;;;10.45;5.38;;;30.80;76.10;;;;;;6240482;28;20053;-78
2021/06/19 06:43:13;;;;;;;8.52;4.85;;;30.90;73.80;;;;;;6231589;28;20552;-79
2021/06/19 06:46:16;;;;;;;7.90;5.00;;;31.00;73.20;;;;;;6226589;28;20046;-77
2021/06/19 06:49:18;;;;;;;11.10;5.53;;;31.20;71.40;;;;;;6225613;28;20455;-78
2021/06/19 06:52:20;;;;;;;6.68;4.65;;;31.30;69.50;;;;;;6226078;28;20141;-78
2021/06/19 06:55:22;;;;;;;4.65;4.18;;;31.30;68.60;;;;;;6226558;28;20081;-78
2021/06/19 06:58:24;;;;;;;10.02;5.05;;;31.20;66.60;;;;;;6226648;28;20077;-78
2021/06/19 07:01:27;;;;;;;6.90;4.80;;;31.00;67.60;;;;;;6226945;28;20050;-76
2021/06/19 07:04:29;;;;;;;10.43;3.38;;;30.70;67.70;;;;;;6227312;28;20045;-78
2021/06/19 07:07:31;;;;;;;8.40;3.70;;;30.40;67.50;;;;;;6228969;28;20131;-78
2021/06/19 07:10:33;;;;;;;7.47;3.40;;;30.40;66.40;;;;;;6229231;28;20100;-78
2021/06/19 07:13:35;;;;;;;7.20;3.20;;;30.30;66.50;;;;;;6239983;28;20081;-78
2021/06/19 07:16:38;;;;;;;6.05;4.45;;;30.20;64.10;;;;;;6254936;28;20041;-78
2021/06/19 07:19:40;;;;;;;9.50;3.90;;;30.10;65.20;;;;;;6255665;28;20073;-78
2021/06/19 07:22:42;;;;;;;8.07;4.05;;;30.10;66.10;;;;;;6277082;22;20495;-77
2021/06/19 07:25:44;;;;;;;6.75;3.10;;;30.00;66.30;;;;;;6249186;28;20053;-77
2021/06/19 07:28:46;;;;;;;5.82;3.78;;;30.20;66.70;;;;;;6249210;28;20049;-77
2021/06/19 07:31:49;;;;;;;5.78;3.70;;;30.20;66.00;;;;;;6246299;28;20180;-76
2021/06/19 07:34:51;;;;;;;4.93;3.72;;;30.20;67.50;;;;;;6249572;28;20041;-77
2021/06/19 07:37:53;;;;;;;6.32;4.13;;;30.20;63.50;;;;;;6246871;28;20196;-76
2021/06/19 07:40:55;;;;;;;5.47;3.92;;;30.30;64.10;;;;;;6224042;28;20065;-77
2021/06/19 07:43:57;;;;;;;5.32;3.35;;;30.20;65.70;;;;;;6223765;28;20049;-77
2021/06/19 07:47:00;;;;;;;10.30;3.83;;;30.30;64.40;;;;;;6234437;28;20080;-76
2021/06/19 07:50:03;;;;;;;4.35;2.88;;;30.20;66.10;;;;;;6248235;28;20045;-76
2021/06/19 07:53:05;;;;;;;6.55;3.38;;;30.20;66.20;;;;;;6248401;28;20081;-76
2021/06/19 07:56:06;;;;;;;9.48;4.13;;;30.20;66.70;;;;;;6248363;28;20123;-77
2021/06/19 07:59:08;;;;;;;5.68;4.38;;;30.30;64.60;;;;;;6244025;28;20182;-76
2021/06/19 08:02:11;;;;;;;7.32;3.45;;;30.20;65.40;;;;;;6228582;28;20111;-77
2021/06/19 08:05:14;;;;;;;4.18;3.78;;;30.40;65.00;;;;;;6222510;28;20136;-77
2021/06/19 08:08:16;;;;;;;8.50;2.90;;;30.50;63.60;;;;;;6222381;28;20512;-77
2021/06/19 08:11:17;;;;;;;5.68;2.38;;;30.50;64.00;;;;;;6222203;28;20184;-77
2021/06/19 08:14:21;;;;;;;10.23;3.20;;;30.60;61.30;;;;;;6238773;28;20076;-76
2021/06/19 08:17:25;;;;;;;3.83;2.30;;;30.60;60.10;;;;;;6247285;28;20049;-77
2021/06/19 08:20:28;;;;;;;3.85;2.40;;;30.80;58.00;;;;;;6238857;28;20145;-77
2021/06/19 08:23:30;;;;;;;6.53;2.55;;;30.90;55.80;;;;;;6222228;28;20060;-76
2021/06/19 08:26:32;;;;;;;8.35;3.65;;;31.00;55.50;;;;;;6229675;28;20037;-77
2021/06/19 08:29:34;;;;;;;4.22;2.28;;;31.00;55.50;;;;;;6247402;28;20088;-77
2021/06/19 08:32:37;;;;;;;8.05;2.85;;;31.00;55.20;;;;;;6247360;28;20112;-77
2021/06/19 08:35:39;;;;;;;4.10;3.08;;;31.00;56.10;;;;;;6247289;28;20509;-77
2021/06/19 08:38:41;;;;;;;12.45;3.45;;;31.10;56.80;;;;;;6247534;28;20097;-76
2021/06/19 08:41:47;;;;;;;7.35;3.30;;;31.10;54.90;;;;;;6246791;28;20053;-77
2021/06/19 08:44:49;;;;;;;7.20;2.70;;;30.90;56.40;;;;;;6246866;28;20132;-77
2021/06/19 08:47:53;;;;;;;6.45;3.03;;;31.00;56.10;;;;;;6246649;28;20119;-77
2021/06/19 08:50:55;;;;;;;5.07;2.95;;;31.20;54.60;;;;;;6248604;28;20128;-77
2021/06/19 08:53:57;;;;;;;3.60;3.17;;;31.30;55.20;;;;;;6248700;28;20072;-77
2021/06/19 08:56:59;;;;;;;7.28;3.28;;;31.40;55.80;;;;;;6246703;28;20105;-77
2021/06/19 09:00:01;;;;;;;6.88;3.42;;;31.50;55.60;;;;;;6246989;28;20111;-77
2021/06/19 09:03:05;;;;;;;5.47;3.03;;;31.30;54.20;;;;;;6232115;28;20507;-78
2021/06/19 09:06:21;;;;;;;8.20;3.13;;;31.10;53.80;;;;;;6223291;28;20112;-77
2021/06/19 09:09:23;;;;;;;8.65;2.78;;;31.00;53.80;;;;;;6222403;28;20054;-77
2021/06/19 09:12:25;;;;;;;5.13;2.72;;;31.00;54.20;;;;;;6222459;28;20132;-77
2021/06/19 09:15:28;;;;;;;6.88;2.58;;;31.20;53.60;;;;;;6246020;28;20184;-76
2021/06/19 09:18:31;;;;;;;5.35;2.28;;;31.20;55.80;;;;;;6247969;28;20628;-77
2021/06/19 09:21:35;;;;;;;5.10;3.55;;;31.20;52.40;;;;;;6249751;28;20136;-76
2021/06/19 09:24:49;;;;;;;3.80;2.90;;;31.20;53.50;;;;;;6253198;28;20045;-77
2021/06/19 09:27:53;;;;;;;5.43;2.42;;;31.40;51.70;;;;;;6246021;28;20045;-77
2021/06/19 09:30:55;;;;;;;10.88;2.70;;;31.50;52.70;;;;;;6245491;28;20041;-77
2021/06/19 09:34:03;;;;;;;8.90;3.47;;;31.50;51.80;;;;;;6245446;28;20454;-77
2021/06/19 09:37:08;;;;;;;10.18;3.75;;;31.30;53.40;;;;;;6245749;28;20132;-76
2021/06/19 09:40:24;;;;;;;7.38;3.67;;;31.30;54.00;;;;;;6245328;28;20597;-77
2021/06/19 09:43:28;;;;;;;9.82;3.50;;;31.40;55.40;;;;;;6246176;28;20057;-77
2021/06/19 09:46:30;;;;;;;6.25;2.83;;;31.60;52.70;;;;;;6246268;28;20069;-78
2021/06/19 09:49:35;;;;;;;10.13;4.25;;;31.50;54.80;;;;;;6247100;28;20054;-77
2021/06/19 09:52:37;;;;;;;8.35;3.72;;;31.70;54.70;;;;;;6244006;28;20049;-77
2021/06/19 09:55:41;;;;;;;7.55;3.72;;;31.50;53.50;;;;;;6246866;28;20045;-78
2021/06/19 09:58:44;;;;;;;5.93;3.75;;;31.40;56.20;;;;;;6245534;28;20088;-77
2021/06/19 10:01:46;;;;;;;7.78;3.90;;;31.60;56.60;;;;;;6244728;28;20045;-76
2021/06/19 10:04:56;;;;;;;9.57;5.22;;;31.70;55.20;;;;;;6245202;28;20132;-77
2021/06/19 10:07:58;;;;;;;11.05;4.45;;;31.50;56.90;;;;;;6245742;28;20080;-78
2021/06/19 10:11:00;;;;;;;5.85;3.92;;;31.40;57.30;;;;;;6245715;28;20148;-79
2021/06/19 10:14:03;;;;;;;12.20;4.22;;;31.50;55.80;;;;;;6246886;28;20131;-79
2021/06/19 10:17:07;;;;;;;6.88;4.05;;;31.70;55.50;;;;;;6249649;28;20411;-77
2021/06/19 10:20:12;;;;;;;6.30;4.35;;;32.00;55.20;;;;;;6244968;28;20136;-77
2021/06/19 10:23:15;;;;;;;5.95;4.70;;;32.30;54.80;;;;;;6247827;28;20064;-77
2021/06/19 10:26:21;;;;;;;6.07;3.95;;;32.30;55.60;;;;;;6251188;28;20124;-77
2021/06/19 10:29:27;;;;;;;9.45;5.13;;;32.20;56.20;;;;;;6253492;28;20276;-77
2021/06/19 10:32:40;;;;;;;8.43;4.65;;;32.20;55.10;;;;;;6253249;28;20057;-76
2021/06/19 10:35:52;;;;;;;6.82;4.20;;;32.20;54.80;;;;;;6252500;28;20050;-77
2021/06/19 10:38:55;;;;;;;10.85;3.83;;;32.30;55.70;;;;;;6253132;28;20065;-78
2021/06/19 10:41:57;;;;;;;6.18;3.85;;;32.50;55.10;;;;;;6252557;28;20486;-77
2021/06/19 10:45:01;;;;;;;12.52;4.20;;;32.70;55.50;;;;;;6254650;28;20075;-77
2021/06/19 10:48:06;;;;;;;9.70;4.00;;;32.90;54.50;;;;;;6253468;28;20047;-79
2021/06/19 10:51:23;;;;;;;5.68;4.90;;;32.90;52.70;;;;;;6253044;28;20134;-77
2021/06/19 10:54:26;;;;;;;8.40;4.38;;;32.60;54.50;;;;;;6252546;28;20124;-78
2021/06/19 10:57:42;;;;;;;9.15;3.75;;;32.50;55.80;;;;;;6253346;28;20056;-78
2021/06/19 11:00:46;;;;;;;7.03;3.63;;;32.60;55.40;;;;;;6252717;28;20464;-78
2021/06/19 11:03:51;;;;;;;9.93;4.03;;;32.70;55.20;;;;;;6248521;28;20179;-78
2021/06/19 11:06:54;;;;;;;9.38;4.70;;;32.80;55.30;;;;;;6253244;28;20045;-77
2021/06/19 11:09:56;;;;;;;7.80;3.95;;;32.80;54.30;;;;;;6251256;28;20073;-78
2021/06/19 11:13:18;;;;;;;11.82;5.05;;;33.00;55.40;;;;;;6250740;28;20139;-77
2021/06/19 11:16:53;;;;;;;11.82;4.72;;;33.20;54.10;;;;;;6249408;28;20556;-77
2021/06/19 11:19:58;;;;;;;10.52;4.95;;;33.00;53.00;;;;;;6250511;28;20066;-78
2021/06/19 11:23:07;;;;;;;13.27;6.05;;;33.20;54.80;;;;;;6251714;28;20045;-77
2021/06/19 11:26:45;;;;;;;13.82;4.68;;;33.50;53.00;;;;;;6252407;28;20116;-78
2021/06/19 11:29:47;;;;;;;7.95;4.63;;;33.80;53.60;;;;;;6251912;28;20042;-78
2021/06/19 11:32:49;;;;;;;10.23;4.32;;;33.60;52.40;;;;;;6252436;28;20498;-78
2021/06/19 11:35:52;;;;;;;14.07;4.72;;;33.40;51.90;;;;;;6251705;28;20156;-77
2021/06/19 11:38:58;;;;;;;11.18;5.93;;;33.30;52.20;;;;;;6251317;28;20045;-77
2021/06/19 11:42:00;;;;;;;23.55;5.57;;;33.30;52.50;;;;;;6250492;28;20052;-78
2021/06/19 11:45:02;;;;;;;22.77;6.22;;;33.40;50.90;;;;;;6251024;28;20136;-78
2021/06/19 11:48:06;;;;;;;8.93;4.75;;;33.50;50.40;;;;;;6249705;28;20132;-77
2021/06/19 11:51:08;;;;;;;10.25;5.03;;;33.40;50.70;;;;;;6250199;28;20049;-77
2021/06/19 11:54:17;;;;;;;15.95;5.15;;;33.30;50.70;;;;;;6250730;28;20091;-77
2021/06/19 11:57:28;;;;;;;14.50;5.57;;;33.50;51.90;;;;;;6249848;28;20058;-77
2021/06/19 12:00:30;;;;;;;12.20;6.28;;;33.60;51.20;;;;;;6249693;28;20399;-78
2021/06/19 12:03:31;;;;;;;12.10;4.82;;;33.80;50.90;;;;;;6249372;28;20046;-77
2021/06/19 12:06:35;;;;;;;15.30;6.65;;;34.10;51.30;;;;;;6242419;28;20188;-77
2021/06/19 12:09:39;;;;;;;11.25;6.32;;;34.30;51.00;;;;;;6250642;28;20049;-77
2021/06/19 12:12:40;;;;;;;11.60;5.32;;;34.50;51.40;;;;;;6250895;28;20057;-77
2021/06/19 12:15:51;;;;;;;16.80;5.80;;;34.60;50.60;;;;;;6249657;28;20099;-77
2021/06/19 12:18:58;;;;;;;20.30;7.70;;;34.70;50.40;;;;;;6247931;28;20203;-77
2021/06/19 12:22:01;;;;;;;11.83;5.93;;;34.70;51.40;;;;;;6249312;28;20578;-77
2021/06/19 12:25:05;;;;;;;21.98;5.45;;;34.40;51.10;;;;;;6248490;28;20304;-75
2021/06/19 12:28:21;;;;;;;16.10;5.63;;;33.90;52.70;;;;;;6245570;28;20124;-76
2021/06/19 12:31:25;;;;;;;12.77;5.80;;;33.80;50.80;;;;;;6248379;28;20115;-77
2021/06/19 12:34:28;;;;;;;18.38;7.20;;;33.20;51.30;;;;;;6249137;28;20407;-79
2021/06/19 12:37:33;;;;;;;9.30;6.15;;;32.70;51.90;;;;;;6248255;28;20534;-76
2021/06/19 12:40:37;;;;;;;17.83;6.32;;;32.40;53.10;;;;;;6247710;28;20645;-76
2021/06/19 12:51:40;;;;;;;16.25;6.97;;;31.20;57.80;;;;;;6219489;28;20034;-77
2021/06/19 12:54:42;;;;;;;12.25;6.53;;;30.50;66.80;;;;;;6228262;28;20050;-77
2021/06/19 12:57:45;;;;;;;12.10;5.57;;;29.90;67.30;;;;;;6229955;28;20085;-78
2021/06/19 13:00:49;;;;;;;13.85;6.65;;;29.60;67.10;;;;;;6253724;28;20106;-78
2021/06/19 13:03:52;;;;;;;13.77;6.93;;;29.40;73.20;;;;;;6250200;28;20042;-78
2021/06/19 13:07:04;;;;;;;10.68;6.40;;;29.40;78.50;;;;;;6238673;28;20038;-79
2021/06/19 13:10:07;;;;;;;10.55;6.13;;;29.60;77.40;;;;;;6252721;28;20068;-79
2021/06/19 13:13:11;;;;;;;18.42;5.55;;;30.20;72.50;;;;;;6254638;28;20132;-79
2021/06/19 13:16:14;;;;;;;16.55;7.53;;;30.90;65.30;;;;;;6251536;28;20149;-78
2021/06/19 13:19:18;;;;;;;16.13;7.38;;;31.60;61.00;;;;;;6248021;28;20503;-76
2021/06/19 13:22:24;;;;;;;12.95;5.80;;;32.20;60.50;;;;;;6247968;28;20103;-76
2021/06/19 13:25:25;;;;;;;13.60;5.50;;;32.70;55.80;;;;;;6271403;28;20041;-76
2021/06/19 13:28:48;;;;;;;16.15;6.97;;;32.90;57.60;;;;;;6279046;28;20064;-74
2021/06/19 13:31:50;;;;;;;11.65;5.95;;;33.10;57.00;;;;;;6278815;28;20037;-76
2021/06/19 13:34:57;;;;;;;14.45;5.93;;;33.30;56.40;;;;;;6278312;28;20050;-76
2021/06/19 13:37:59;;;;;;;8.10;5.78;;;33.30;56.20;;;;;;6278708;28;20053;-75
2021/06/19 13:41:23;;;;;;;16.33;6.55;;;33.00;57.60;;;;;;6278956;28;20054;-75
2021/06/19 13:44:28;;;;;;;10.95;5.90;;;32.80;56.80;;;;;;6278360;28;20053;-74
2021/06/19 13:47:29;;;;;;;14.90;5.47;;;32.80;57.60;;;;;;6278568;28;20029;-74
2021/06/19 13:50:33;;;;;;;13.10;5.45;;;32.90;56.70;;;;;;6277598;28;20026;-74
2021/06/19 13:53:35;;;;;;;17.02;7.38;;;33.00;55.10;;;;;;6277495;28;20145;-74
2021/06/19 13:56:36;;;;;;;14.82;7.05;;;33.10;52.80;;;;;;6266924;28;20103;-75
2021/06/19 13:59:40;;;;;;;8.80;4.38;;;33.10;51.50;;;;;;6251071;28;20105;-76
2021/06/19 14:02:42;;;;;;;9.65;4.78;;;33.10;51.00;;;;;;6250873;28;20457;-76
2021/06/19 14:05:44;;;;;;;14.75;6.70;;;33.20;51.40;;;;;;6249818;28;20574;-76
2021/06/19 14:08:47;;;;;;;12.90;5.60;;;33.30;50.60;;;;;;6250358;28;20181;-77
2021/06/19 14:11:49;;;;;;;16.23;5.43;;;33.40;52.00;;;;;;6250595;28;20179;-76
2021/06/19 14:14:52;;;;;;;13.13;5.60;;;33.60;52.20;;;;;;6250826;28;20111;-77
2021/06/19 14:17:54;;;;;;;13.88;4.88;;;33.70;49.90;;;;;;6250255;28;20088;-77
2021/06/19 14:20:58;;;;;;;11.73;5.80;;;33.50;49.60;;;;;;6250406;28;20430;-77
2021/06/19 14:24:00;;;;;;;11.57;5.20;;;33.40;51.20;;;;;;6249864;28;20042;-77
2021/06/19 14:27:06;;;;;;;15.40;6.68;;;33.50;51.00;;;;;;6250490;28;20168;-76
2021/06/19 14:30:10;;;;;;;12.85;5.40;;;33.50;50.30;;;;;;6249863;28;20053;-77
2021/06/19 14:33:12;;;;;;;16.55;6.28;;;33.50;50.90;;;;;;6250046;28;20049;-76
2021/06/19 14:36:14;;;;;;;22.20;5.22;;;33.20;50.40;;;;;;6250146;28;20077;-76
2021/06/19 14:39:16;;;;;;;14.55;5.75;;;33.00;51.50;;;;;;6249581;28;20080;-76
2021/06/19 14:42:18;;;;;;;19.17;5.95;;;33.00;51.90;;;;;;6249893;28;20149;-76
2021/06/19 14:45:21;;;;;;;11.40;6.20;;;32.90;51.80;;;;;;6249482;28;20507;-76
2021/06/19 14:48:23;;;;;;;12.52;6.50;;;32.80;52.60;;;;;;6249709;28;20073;-76
2021/06/19 14:51:24;;;;;;;15.73;6.20;;;32.70;52.90;;;;;;6248911;28;20069;-76
2021/06/19 14:54:26;;;;;;;11.82;4.68;;;32.90;51.90;;;;;;6249246;28;20100;-76
2021/06/19 14:57:28;;;;;;;11.30;5.18;;;33.00;51.30;;;;;;6249583;28;20049;-76
2021/06/19 15:00:32;;;;;;;9.88;5.75;;;33.00;52.40;;;;;;6248698;28;20046;-76
2021/06/19 15:03:34;;;;;;;12.23;5.47;;;33.10;52.00;;;;;;6249769;28;20087;-76
2021/06/19 15:06:37;;;;;;;11.68;6.07;;;33.10;51.80;;;;;;6242877;28;20136;-76
2021/06/19 15:09:39;;;;;;;19.05;6.43;;;33.20;52.30;;;;;;6247515;28;20049;-77
2021/06/19 15:12:41;;;;;;;10.30;5.57;;;33.20;51.40;;;;;;6248706;28;20139;-76
2021/06/19 15:15:44;;;;;;;11.77;6.53;;;33.20;51.00;;;;;;6248619;28;20076;-76
2021/06/19 15:18:46;;;;;;;13.57;5.72;;;33.00;51.40;;;;;;6248147;28;20111;-75
2021/06/19 15:21:48;;;;;;;14.40;6.28;;;32.70;51.50;;;;;;6248648;28;20203;-76
2021/06/19 15:24:49;;;;;;;9.23;5.72;;;32.50;51.80;;;;;;6248485;28;20573;-76
2021/06/19 15:27:51;;;;;;;18.67;6.05;;;32.30;52.10;;;;;;6248541;28;20134;-76
2021/06/19 15:30:54;;;;;;;14.07;6.40;;;32.30;52.80;;;;;;6248285;28;20069;-76
2021/06/19 15:33:56;;;;;;;9.88;5.25;;;32.30;52.80;;;;;;6248329;28;20049;-76
2021/06/19 15:36:58;;;;;;;12.23;5.90;;;32.20;53.30;;;;;;6248821;28;20138;-76
2021/06/19 15:40:00;;;;;;;15.50;6.40;;;32.20;53.90;;;;;;6247704;28;20135;-76
2021/06/19 15:43:02;;;;;;;17.13;5.90;;;32.20;53.30;;;;;;6248059;28;20404;-76
2021/06/19 15:46:05;;;;;;;14.98;6.35;;;32.10;53.40;;;;;;6247993;28;20198;-76
2021/06/19 15:49:10;;;;;;;11.93;6.18;;;32.00;54.40;;;;;;6248278;28;20045;-76
2021/06/19 15:52:12;;;;;;;11.52;6.30;;;32.00;54.50;;;;;;6247501;28;20507;-76
2021/06/19 15:55:15;;;;;;;11.77;5.32;;;32.00;54.60;;;;;;6247846;28;20517;-76